sensor_id;sensor_type;location;lat;lon;timestamp;P1;durP1;ratioP1;P2;durP2;ratioP2
25980;SDS011;13772;52.996;9.124;2023-05-07T09:44:39;7.22;;;5.60;;
25980;SDS011;13772;52.996;9.124;2023-05-07T09:47:10;7.45;;;5.55;;
25980;SDS011;13772;52.996;9.124;2023-05-07T09:49:42;6.85;;;5.80;;
25980;SDS011;13772;52.996;9.124;2023-05-07T09:52:11;8.55;;;6.70;;
25980;SDS011;13772;52.996;9.124;2023-05-07T09:54:43;7.57;;;6.10;;
25980;SDS011;13772;52.996;9.124;2023-05-07T09:57:11;7.82;;;6.57;;
25980;SDS011;13772;52.996;9.124;2023-05-07T09:59:38;8.52;;;6.50;;
25980;SDS011;13772;52.996;9.124;2023-05-07T10:02:07;8.82;;;6.03;;
25980;SDS011;13772;52.996;9.124;2023-05-07T10:04:41;7.38;;;6.50;;
25980;SDS011;13772;52.996;9.124;2023-05-07T10:07:07;9.20;;;6.95;;
25980;SDS011;13772;52.996;9.124;2023-05-07T10:09:34;8.70;;;6.90;;
25980;SDS011;13772;52.996;9.124;2023-05-07T10:12:04;8.77;;;6.68;;
25980;SDS011;13772;52.996;9.124;2023-05-07T10:14:30;8.70;;;7.15;;
25980;SDS011;13772;52.996;9.124;2023-05-07T10:16:55;8.55;;;7.05;;
25980;SDS011;13772;52.996;9.124;2023-05-07T10:19:21;8.50;;;6.57;;
25980;SDS011;13772;52.996;9.124;2023-05-07T10:21:51;9.65;;;6.65;;
25980;SDS011;13772;52.996;9.124;2023-05-07T10:24:26;10.68;;;6.60;;
25980;SDS011;13772;52.996;9.124;2023-05-07T10:26:52;9.07;;;6.65;;
25980;SDS011;13772;52.996;9.124;2023-05-07T10:29:23;6.82;;;5.75;;
25980;SDS011;13772;52.996;9.124;2023-05-07T10:32:03;9.50;;;6.55;;
25980;SDS011;13772;52.996;9.124;2023-05-07T10:34:34;8.10;;;6.32;;
25980;SDS011;13772;52.996;9.124;2023-05-07T10:37:01;8.45;;;5.97;;
25980;SDS011;13772;52.996;9.124;2023-05-07T10:39:28;7.72;;;6.25;;
25980;SDS011;13772;52.996;9.124;2023-05-07T10:41:53;7.13;;;5.95;;
25980;SDS011;13772;52.996;9.124;2023-05-07T10:44:26;7.40;;;6.32;;
25980;SDS011;13772;52.996;9.124;2023-05-07T10:49:30;8.73;;;6.40;;
25980;SDS011;13772;52.996;9.124;2023-05-07T10:57:45;6.85;;;5.70;;
25980;SDS011;13772;52.996;9.124;2023-05-07T11:08:12;6.45;;;5.15;;
25980;SDS011;13772;52.996;9.124;2023-05-07T11:16:05;8.75;;;5.93;;
25980;SDS011;13772;52.996;9.124;2023-05-07T11:18:48;6.43;;;5.53;;
25980;SDS011;13772;52.996;9.124;2023-05-07T11:21:20;7.63;;;5.75;;
25980;SDS011;13772;52.996;9.124;2023-05-07T11:24:03;7.20;;;5.15;;
25980;SDS011;13772;52.996;9.124;2023-05-07T11:26:43;6.78;;;5.30;;
25980;SDS011;13772;52.996;9.124;2023-05-07T11:29:13;7.45;;;5.45;;
25980;SDS011;13772;52.996;9.124;2023-05-07T11:31:40;7.15;;;5.18;;
25980;SDS011;13772;52.996;9.124;2023-05-07T11:34:05;7.70;;;5.82;;
25980;SDS011;13772;52.996;9.124;2023-05-07T11:36:32;6.50;;;5.40;;
25980;SDS011;13772;52.996;9.124;2023-05-07T11:38:59;7.50;;;6.00;;
25980;SDS011;13772;52.996;9.124;2023-05-07T11:41:34;8.02;;;5.90;;
25980;SDS011;13772;52.996;9.124;2023-05-07T11:44:00;7.93;;;5.60;;
25980;SDS011;13772;52.996;9.124;2023-05-07T11:46:26;6.75;;;5.57;;
25980;SDS011;13772;52.996;9.124;2023-05-07T11:48:51;6.28;;;5.10;;
25980;SDS011;13772;52.996;9.124;2023-05-07T11:51:21;5.30;;;4.43;;
25980;SDS011;13772;52.996;9.124;2023-05-07T11:53:46;6.60;;;5.07;;
25980;SDS011;13772;52.996;9.124;2023-05-07T11:56:12;6.47;;;4.80;;
25980;SDS011;13772;52.996;9.124;2023-05-07T11:58:40;5.22;;;4.70;;
25980;SDS011;13772;52.996;9.124;2023-05-07T12:01:07;6.55;;;5.10;;
25980;SDS011;13772;52.996;9.124;2023-05-07T12:03:32;6.78;;;4.75;;
25980;SDS011;13772;52.996;9.124;2023-05-07T12:05:57;5.53;;;4.30;;
25980;SDS011;13772;52.996;9.124;2023-05-07T12:08:24;5.03;;;4.22;;
25980;SDS011;13772;52.996;9.124;2023-05-07T12:10:50;5.30;;;4.25;;
25980;SDS011;13772;52.996;9.124;2023-05-07T12:13:18;5.88;;;4.30;;
25980;SDS011;13772;52.996;9.124;2023-05-07T12:15:43;5.63;;;4.30;;
25980;SDS011;13772;52.996;9.124;2023-05-07T12:18:09;4.07;;;3.65;;
25980;SDS011;13772;52.996;9.124;2023-05-07T12:20:35;4.55;;;3.67;;
25980;SDS011;13772;52.996;9.124;2023-05-07T12:23:01;4.13;;;3.53;;
25980;SDS011;13772;52.996;9.124;2023-05-07T12:25:26;3.90;;;3.35;;
25980;SDS011;13772;52.996;9.124;2023-05-07T12:27:52;5.72;;;3.20;;
25980;SDS011;13772;52.996;9.124;2023-05-07T12:30:17;4.45;;;3.03;;
25980;SDS011;13772;52.996;9.124;2023-05-07T12:32:43;5.82;;;3.80;;
25980;SDS011;13772;52.996;9.124;2023-05-07T12:35:10;3.85;;;3.03;;
25980;SDS011;13772;52.996;9.124;2023-05-07T12:37:35;3.97;;;2.95;;
25980;SDS011;13772;52.996;9.124;2023-05-07T12:40:18;4.82;;;3.40;;
25980;SDS011;13772;52.996;9.124;2023-05-07T12:42:44;3.88;;;3.13;;
25980;SDS011;13772;52.996;9.124;2023-05-07T12:45:10;4.72;;;3.25;;
25980;SDS011;13772;52.996;9.124;2023-05-07T12:47:35;4.50;;;3.45;;
25980;SDS011;13772;52.996;9.124;2023-05-07T12:50:02;4.30;;;3.50;;
25980;SDS011;13772;52.996;9.124;2023-05-07T12:52:27;3.47;;;3.03;;
25980;SDS011;13772;52.996;9.124;2023-05-07T12:54:52;4.15;;;3.28;;
25980;SDS011;13772;52.996;9.124;2023-05-07T12:57:18;5.72;;;3.60;;
25980;SDS011;13772;52.996;9.124;2023-05-07T12:59:44;5.07;;;3.50;;
25980;SDS011;13772;52.996;9.124;2023-05-07T13:02:09;4.03;;;3.38;;
25980;SDS011;13772;52.996;9.124;2023-05-07T13:04:36;4.53;;;3.58;;
25980;SDS011;13772;52.996;9.124;2023-05-07T13:07:01;5.03;;;3.42;;
25980;SDS011;13772;52.996;9.124;2023-05-07T13:09:27;4.72;;;3.15;;
25980;SDS011;13772;52.996;9.124;2023-05-07T13:11:54;4.57;;;3.58;;
25980;SDS011;13772;52.996;9.124;2023-05-07T13:14:19;4.88;;;3.42;;
25980;SDS011;13772;52.996;9.124;2023-05-07T13:16:46;5.65;;;3.78;;
25980;SDS011;13772;52.996;9.124;2023-05-07T13:19:11;5.28;;;3.60;;
25980;SDS011;13772;52.996;9.124;2023-05-07T13:21:36;5.43;;;3.60;;
25980;SDS011;13772;52.996;9.124;2023-05-07T13:24:02;8.27;;;3.80;;
25980;SDS011;13772;52.996;9.124;2023-05-07T13:26:27;4.57;;;3.67;;
25980;SDS011;13772;52.996;9.124;2023-05-07T13:28:53;4.43;;;3.35;;
25980;SDS011;13772;52.996;9.124;2023-05-07T13:31:18;5.88;;;4.13;;
25980;SDS011;13772;52.996;9.124;2023-05-07T13:33:43;5.90;;;4.25;;
25980;SDS011;13772;52.996;9.124;2023-05-07T13:36:09;5.63;;;4.10;;
25980;SDS011;13772;52.996;9.124;2023-05-07T13:38:34;6.95;;;4.03;;
25980;SDS011;13772;52.996;9.124;2023-05-07T13:41:00;5.25;;;4.30;;
25980;SDS011;13772;52.996;9.124;2023-05-07T13:43:25;8.15;;;4.20;;
25980;SDS011;13772;52.996;9.124;2023-05-07T13:45:50;6.05;;;4.40;;
25980;SDS011;13772;52.996;9.124;2023-05-07T13:48:15;5.13;;;4.05;;
25980;SDS011;13772;52.996;9.124;2023-05-07T13:50:41;7.15;;;4.72;;
25980;SDS011;13772;52.996;9.124;2023-05-07T13:53:07;7.45;;;4.47;;
25980;SDS011;13772;52.996;9.124;2023-05-07T13:55:32;5.90;;;4.65;;
25980;SDS011;13772;52.996;9.124;2023-05-07T13:57:58;6.78;;;4.57;;
25980;SDS011;13772;52.996;9.124;2023-05-07T14:00:24;5.15;;;4.38;;
25980;SDS011;13772;52.996;9.124;2023-05-07T14:02:50;7.90;;;4.40;;
25980;SDS011;13772;52.996;9.124;2023-05-07T14:05:15;7.20;;;4.45;;
25980;SDS011;13772;52.996;9.124;2023-05-07T14:07:41;5.75;;;4.18;;
25980;SDS011;13772;52.996;9.124;2023-05-07T14:10:06;4.28;;;3.50;;
25980;SDS011;13772;52.996;9.124;2023-05-07T14:12:32;6.72;;;4.35;;
25980;SDS011;13772;52.996;9.124;2023-05-07T14:14:57;5.97;;;4.00;;
25980;SDS011;13772;52.996;9.124;2023-05-07T14:17:22;4.82;;;3.30;;
25980;SDS011;13772;52.996;9.124;2023-05-07T14:19:50;5.55;;;3.80;;
25980;SDS011;13772;52.996;9.124;2023-05-07T14:22:15;4.78;;;3.63;;
25980;SDS011;13772;52.996;9.124;2023-05-07T14:24:40;5.45;;;3.70;;
25980;SDS011;13772;52.996;9.124;2023-05-07T14:27:05;5.72;;;3.25;;
25980;SDS011;13772;52.996;9.124;2023-05-07T14:29:31;5.18;;;3.53;;
25980;SDS011;13772;52.996;9.124;2023-05-07T14:31:56;5.93;;;3.60;;
25980;SDS011;13772;52.996;9.124;2023-05-07T14:34:21;4.78;;;3.30;;
25980;SDS011;13772;52.996;9.124;2023-05-07T14:36:46;5.38;;;3.40;;
25980;SDS011;13772;52.996;9.124;2023-05-07T14:39:12;6.50;;;3.63;;
25980;SDS011;13772;52.996;9.124;2023-05-07T14:41:37;4.73;;;3.43;;
25980;SDS011;13772;52.996;9.124;2023-05-07T14:44:03;5.57;;;3.33;;
25980;SDS011;13772;52.996;9.124;2023-05-07T14:46:29;5.15;;;3.10;;
25980;SDS011;13772;52.996;9.124;2023-05-07T14:48:54;4.55;;;3.00;;
25980;SDS011;13772;52.996;9.124;2023-05-07T14:51:20;4.47;;;3.22;;
25980;SDS011;13772;52.996;9.124;2023-05-07T14:53:45;4.03;;;3.22;;
25980;SDS011;13772;52.996;9.124;2023-05-07T14:56:10;3.38;;;3.08;;
25980;SDS011;13772;52.996;9.124;2023-05-07T14:58:36;4.70;;;3.63;;
25980;SDS011;13772;52.996;9.124;2023-05-07T15:01:02;5.22;;;3.30;;
25980;SDS011;13772;52.996;9.124;2023-05-07T15:03:27;5.45;;;3.25;;
25980;SDS011;13772;52.996;9.124;2023-05-07T15:05:52;5.03;;;3.67;;
25980;SDS011;13772;52.996;9.124;2023-05-07T15:08:18;5.47;;;3.45;;
25980;SDS011;13772;52.996;9.124;2023-05-07T15:10:43;6.00;;;3.88;;
25980;SDS011;13772;52.996;9.124;2023-05-07T15:13:08;6.55;;;3.72;;
25980;SDS011;13772;52.996;9.124;2023-05-07T15:15:34;5.97;;;3.20;;
25980;SDS011;13772;52.996;9.124;2023-05-07T15:17:59;3.90;;;3.33;;
25980;SDS011;13772;52.996;9.124;2023-05-07T15:20:25;4.78;;;3.60;;
25980;SDS011;13772;52.996;9.124;2023-05-07T15:22:50;5.30;;;4.10;;
25980;SDS011;13772;52.996;9.124;2023-05-07T15:25:15;5.22;;;3.92;;
25980;SDS011;13772;52.996;9.124;2023-05-07T15:27:42;4.72;;;3.97;;
25980;SDS011;13772;52.996;9.124;2023-05-07T15:30:07;5.00;;;4.03;;
25980;SDS011;13772;52.996;9.124;2023-05-07T15:32:35;8.00;;;3.80;;
25980;SDS011;13772;52.996;9.124;2023-05-07T15:35:00;4.80;;;3.92;;
25980;SDS011;13772;52.996;9.124;2023-05-07T15:37:25;6.63;;;3.75;;
25980;SDS011;13772;52.996;9.124;2023-05-07T15:39:50;5.05;;;4.10;;
25980;SDS011;13772;52.996;9.124;2023-05-07T15:42:16;5.00;;;3.83;;
25980;SDS011;13772;52.996;9.124;2023-05-07T15:44:41;5.35;;;4.00;;
25980;SDS011;13772;52.996;9.124;2023-05-07T15:47:07;5.80;;;3.95;;
25980;SDS011;13772;52.996;9.124;2023-05-07T15:49:33;5.75;;;4.53;;
25980;SDS011;13772;52.996;9.124;2023-05-07T15:51:58;5.80;;;3.58;;
25980;SDS011;13772;52.996;9.124;2023-05-07T15:54:23;4.70;;;3.75;;
25980;SDS011;13772;52.996;9.124;2023-05-07T15:56:49;4.45;;;3.53;;
25980;SDS011;13772;52.996;9.124;2023-05-07T15:59:15;7.00;;;4.03;;
25980;SDS011;13772;52.996;9.124;2023-05-07T16:01:41;4.75;;;3.90;;
25980;SDS011;13772;52.996;9.124;2023-05-07T16:04:07;4.80;;;4.00;;
25980;SDS011;13772;52.996;9.124;2023-05-07T16:06:32;4.43;;;3.90;;
25980;SDS011;13772;52.996;9.124;2023-05-07T16:08:57;5.65;;;3.92;;
25980;SDS011;13772;52.996;9.124;2023-05-07T16:11:23;6.57;;;3.78;;
25980;SDS011;13772;52.996;9.124;2023-05-07T16:13:48;5.22;;;3.85;;
25980;SDS011;13772;52.996;9.124;2023-05-07T16:16:13;4.93;;;3.63;;
25980;SDS011;13772;52.996;9.124;2023-05-07T16:18:38;7.05;;;3.83;;
25980;SDS011;13772;52.996;9.124;2023-05-07T16:21:05;6.03;;;4.00;;
25980;SDS011;13772;52.996;9.124;2023-05-07T16:23:30;4.47;;;4.00;;
25980;SDS011;13772;52.996;9.124;2023-05-07T16:25:55;5.45;;;3.47;;
25980;SDS011;13772;52.996;9.124;2023-05-07T16:28:21;5.35;;;3.92;;
25980;SDS011;13772;52.996;9.124;2023-05-07T16:30:46;5.53;;;4.22;;
25980;SDS011;13772;52.996;9.124;2023-05-07T16:33:12;7.70;;;4.00;;
25980;SDS011;13772;52.996;9.124;2023-05-07T16:35:37;5.78;;;4.25;;
25980;SDS011;13772;52.996;9.124;2023-05-07T16:38:02;4.97;;;3.45;;
25980;SDS011;13772;52.996;9.124;2023-05-07T16:40:34;6.38;;;4.20;;
25980;SDS011;13772;52.996;9.124;2023-05-07T16:43:00;5.80;;;3.80;;
25980;SDS011;13772;52.996;9.124;2023-05-07T16:45:25;4.63;;;3.50;;
25980;SDS011;13772;52.996;9.124;2023-05-07T16:47:50;4.13;;;3.38;;
25980;SDS011;13772;52.996;9.124;2023-05-07T16:50:15;4.53;;;3.50;;
25980;SDS011;13772;52.996;9.124;2023-05-07T16:52:41;8.48;;;3.90;;
25980;SDS011;13772;52.996;9.124;2023-05-07T16:55:06;5.78;;;4.05;;
25980;SDS011;13772;52.996;9.124;2023-05-07T16:57:31;5.07;;;3.60;;
25980;SDS011;13772;52.996;9.124;2023-05-07T16:59:56;4.60;;;3.75;;
25980;SDS011;13772;52.996;9.124;2023-05-07T17:02:23;5.93;;;3.47;;
25980;SDS011;13772;52.996;9.124;2023-05-07T17:04:48;3.70;;;3.00;;
25980;SDS011;13772;52.996;9.124;2023-05-07T17:07:13;6.47;;;3.72;;
25980;SDS011;13772;52.996;9.124;2023-05-07T17:09:39;6.15;;;3.75;;
25980;SDS011;13772;52.996;9.124;2023-05-07T17:12:04;6.65;;;4.20;;
25980;SDS011;13772;52.996;9.124;2023-05-07T17:14:29;4.43;;;3.30;;
25980;SDS011;13772;52.996;9.124;2023-05-07T17:16:54;5.13;;;3.70;;
25980;SDS011;13772;52.996;9.124;2023-05-07T17:19:20;4.55;;;3.63;;
25980;SDS011;13772;52.996;9.124;2023-05-07T17:21:45;4.97;;;3.42;;
25980;SDS011;13772;52.996;9.124;2023-05-07T17:24:10;5.05;;;3.30;;
25980;SDS011;13772;52.996;9.124;2023-05-07T17:26:35;4.75;;;3.53;;
25980;SDS011;13772;52.996;9.124;2023-05-07T17:29:03;5.88;;;3.63;;
25980;SDS011;13772;52.996;9.124;2023-05-07T17:31:28;4.40;;;3.50;;
25980;SDS011;13772;52.996;9.124;2023-05-07T17:33:53;6.47;;;3.80;;
25980;SDS011;13772;52.996;9.124;2023-05-07T17:36:18;4.43;;;3.33;;
25980;SDS011;13772;52.996;9.124;2023-05-07T17:38:44;8.20;;;3.85;;
25980;SDS011;13772;52.996;9.124;2023-05-07T17:41:09;4.30;;;3.35;;
25980;SDS011;13772;52.996;9.124;2023-05-07T17:43:34;4.65;;;3.63;;
25980;SDS011;13772;52.996;9.124;2023-05-07T17:46:00;4.72;;;3.40;;
25980;SDS011;13772;52.996;9.124;2023-05-07T17:48:25;5.03;;;3.40;;
25980;SDS011;13772;52.996;9.124;2023-05-07T17:50:50;5.00;;;3.78;;
25980;SDS011;13772;52.996;9.124;2023-05-07T17:53:15;5.00;;;3.55;;
25980;SDS011;13772;52.996;9.124;2023-05-07T17:55:41;4.60;;;3.30;;
25980;SDS011;13772;52.996;9.124;2023-05-07T17:58:07;7.18;;;3.88;;
25980;SDS011;13772;52.996;9.124;2023-05-07T18:00:33;7.18;;;3.25;;
25980;SDS011;13772;52.996;9.124;2023-05-07T18:03:00;5.85;;;3.50;;
25980;SDS011;13772;52.996;9.124;2023-05-07T18:05:25;6.07;;;3.25;;
25980;SDS011;13772;52.996;9.124;2023-05-07T18:07:51;5.22;;;3.80;;
25980;SDS011;13772;52.996;9.124;2023-05-07T18:10:16;7.15;;;3.72;;
25980;SDS011;13772;52.996;9.124;2023-05-07T18:12:41;4.85;;;3.30;;
25980;SDS011;13772;52.996;9.124;2023-05-07T18:15:07;5.72;;;3.58;;
25980;SDS011;13772;52.996;9.124;2023-05-07T18:17:32;4.93;;;3.55;;
25980;SDS011;13772;52.996;9.124;2023-05-07T18:19:58;6.57;;;3.55;;
25980;SDS011;13772;52.996;9.124;2023-05-07T18:22:23;6.28;;;3.80;;
25980;SDS011;13772;52.996;9.124;2023-05-07T18:24:48;8.07;;;3.45;;
25980;SDS011;13772;52.996;9.124;2023-05-07T18:27:13;7.65;;;3.67;;
25980;SDS011;13772;52.996;9.124;2023-05-07T18:29:39;5.63;;;3.42;;
25980;SDS011;13772;52.996;9.124;2023-05-07T18:32:04;4.18;;;3.20;;
25980;SDS011;13772;52.996;9.124;2023-05-07T18:34:29;5.75;;;3.53;;
25980;SDS011;13772;52.996;9.124;2023-05-07T18:36:55;4.68;;;3.90;;
25980;SDS011;13772;52.996;9.124;2023-05-07T18:39:20;5.13;;;3.78;;
25980;SDS011;13772;52.996;9.124;2023-05-07T18:41:45;6.18;;;3.90;;
25980;SDS011;13772;52.996;9.124;2023-05-07T18:44:12;6.18;;;3.78;;
25980;SDS011;13772;52.996;9.124;2023-05-07T18:46:38;6.13;;;4.15;;
25980;SDS011;13772;52.996;9.124;2023-05-07T18:49:03;4.35;;;3.63;;
25980;SDS011;13772;52.996;9.124;2023-05-07T18:51:28;5.30;;;3.80;;
25980;SDS011;13772;52.996;9.124;2023-05-07T18:53:53;5.90;;;3.72;;
25980;SDS011;13772;52.996;9.124;2023-05-07T18:56:19;5.82;;;3.97;;
25980;SDS011;13772;52.996;9.124;2023-05-07T18:58:45;4.53;;;3.45;;
25980;SDS011;13772;52.996;9.124;2023-05-07T19:01:10;6.30;;;4.18;;
25980;SDS011;13772;52.996;9.124;2023-05-07T19:03:36;7.40;;;4.10;;
25980;SDS011;13772;52.996;9.124;2023-05-07T19:06:01;5.63;;;4.55;;
25980;SDS011;13772;52.996;9.124;2023-05-07T19:08:27;5.50;;;3.95;;
25980;SDS011;13772;52.996;9.124;2023-05-07T19:10:54;7.85;;;4.78;;
25980;SDS011;13772;52.996;9.124;2023-05-07T19:13:19;6.07;;;4.07;;
25980;SDS011;13772;52.996;9.124;2023-05-07T19:15:44;4.90;;;3.95;;
25980;SDS011;13772;52.996;9.124;2023-05-07T19:18:10;6.57;;;4.15;;
25980;SDS011;13772;52.996;9.124;2023-05-07T19:20:35;4.70;;;3.53;;
25980;SDS011;13772;52.996;9.124;2023-05-07T19:23:00;6.13;;;4.22;;
25980;SDS011;13772;52.996;9.124;2023-05-07T19:25:26;7.40;;;4.32;;
25980;SDS011;13772;52.996;9.124;2023-05-07T19:27:51;5.60;;;4.10;;
25980;SDS011;13772;52.996;9.124;2023-05-07T19:30:16;5.05;;;4.15;;
25980;SDS011;13772;52.996;9.124;2023-05-07T19:32:41;4.97;;;4.13;;
25980;SDS011;13772;52.996;9.124;2023-05-07T19:35:07;5.10;;;4.07;;
25980;SDS011;13772;52.996;9.124;2023-05-07T19:37:32;5.07;;;3.88;;
25980;SDS011;13772;52.996;9.124;2023-05-07T19:39:57;6.32;;;4.88;;
25980;SDS011;13772;52.996;9.124;2023-05-07T19:42:28;5.68;;;4.90;;
25980;SDS011;13772;52.996;9.124;2023-05-07T19:44:54;6.43;;;5.00;;
25980;SDS011;13772;52.996;9.124;2023-05-07T19:47:19;7.28;;;4.57;;
25980;SDS011;13772;52.996;9.124;2023-05-07T19:49:45;6.78;;;4.95;;
25980;SDS011;13772;52.996;9.124;2023-05-07T19:52:10;7.28;;;4.65;;
25980;SDS011;13772;52.996;9.124;2023-05-07T19:54:35;5.97;;;4.88;;
25980;SDS011;13772;52.996;9.124;2023-05-07T19:57:00;6.75;;;4.72;;
25980;SDS011;13772;52.996;9.124;2023-05-07T19:59:26;5.20;;;4.20;;
25980;SDS011;13772;52.996;9.124;2023-05-07T20:01:51;7.03;;;4.43;;
25980;SDS011;13772;52.996;9.124;2023-05-07T20:04:16;5.70;;;4.25;;
25980;SDS011;13772;52.996;9.124;2023-05-07T20:06:41;7.65;;;4.60;;
25980;SDS011;13772;52.996;9.124;2023-05-07T20:09:06;6.13;;;4.80;;
25980;SDS011;13772;52.996;9.124;2023-05-07T20:11:36;7.60;;;4.53;;
25980;SDS011;13772;52.996;9.124;2023-05-07T20:14:01;6.40;;;4.50;;
25980;SDS011;13772;52.996;9.124;2023-05-07T20:16:28;7.40;;;5.15;;
25980;SDS011;13772;52.996;9.124;2023-05-07T20:18:53;7.40;;;4.90;;
25980;SDS011;13772;52.996;9.124;2023-05-07T20:21:19;7.82;;;4.88;;
25980;SDS011;13772;52.996;9.124;2023-05-07T20:23:44;6.07;;;4.68;;
25980;SDS011;13772;52.996;9.124;2023-05-07T20:26:09;6.28;;;4.95;;
25980;SDS011;13772;52.996;9.124;2023-05-07T20:28:35;5.97;;;4.95;;
25980;SDS011;13772;52.996;9.124;2023-05-07T20:31:00;6.35;;;5.00;;
25980;SDS011;13772;52.996;9.124;2023-05-07T20:33:25;6.32;;;4.65;;
25980;SDS011;13772;52.996;9.124;2023-05-07T20:35:50;5.72;;;4.85;;
25980;SDS011;13772;52.996;9.124;2023-05-07T20:38:16;6.95;;;5.20;;
25980;SDS011;13772;52.996;9.124;2023-05-07T20:40:41;7.18;;;5.03;;
25980;SDS011;13772;52.996;9.124;2023-05-07T20:43:06;6.63;;;4.88;;
25980;SDS011;13772;52.996;9.124;2023-05-07T20:45:31;9.10;;;5.63;;
25980;SDS011;13772;52.996;9.124;2023-05-07T20:47:57;8.00;;;5.22;;
25980;SDS011;13772;52.996;9.124;2023-05-07T20:50:22;7.38;;;5.47;;
25980;SDS011;13772;52.996;9.124;2023-05-07T20:52:48;6.10;;;4.78;;
25980;SDS011;13772;52.996;9.124;2023-05-07T20:55:13;6.75;;;4.57;;
25980;SDS011;13772;52.996;9.124;2023-05-07T20:57:39;5.78;;;5.13;;
25980;SDS011;13772;52.996;9.124;2023-05-07T21:00:04;5.82;;;4.93;;
25980;SDS011;13772;52.996;9.124;2023-05-07T21:02:31;6.15;;;4.85;;
25980;SDS011;13772;52.996;9.124;2023-05-07T21:04:56;6.82;;;4.90;;
25980;SDS011;13772;52.996;9.124;2023-05-07T21:07:21;6.07;;;4.30;;
25980;SDS011;13772;52.996;9.124;2023-05-07T21:09:47;8.48;;;4.82;;
25980;SDS011;13772;52.996;9.124;2023-05-07T21:12:12;6.20;;;4.82;;
25980;SDS011;13772;52.996;9.124;2023-05-07T21:14:37;7.72;;;5.22;;
25980;SDS011;13772;52.996;9.124;2023-05-07T21:17:04;5.60;;;4.85;;
25980;SDS011;13772;52.996;9.124;2023-05-07T21:19:31;6.43;;;4.35;;
25980;SDS011;13772;52.996;9.124;2023-05-07T21:21:56;5.82;;;4.65;;
25980;SDS011;13772;52.996;9.124;2023-05-07T21:24:22;5.32;;;4.70;;
25980;SDS011;13772;52.996;9.124;2023-05-07T21:26:47;5.60;;;4.47;;
25980;SDS011;13772;52.996;9.124;2023-05-07T21:29:13;6.55;;;4.80;;
25980;SDS011;13772;52.996;9.124;2023-05-07T21:31:38;7.53;;;4.78;;
25980;SDS011;13772;52.996;9.124;2023-05-07T21:34:03;7.20;;;4.60;;
25980;SDS011;13772;52.996;9.124;2023-05-07T21:36:31;5.60;;;4.45;;
25980;SDS011;13772;52.996;9.124;2023-05-07T21:38:56;7.40;;;4.97;;
25980;SDS011;13772;52.996;9.124;2023-05-07T21:41:22;6.72;;;4.03;;
25980;SDS011;13772;52.996;9.124;2023-05-07T21:43:47;5.57;;;4.88;;
25980;SDS011;13772;52.996;9.124;2023-05-07T21:46:12;5.72;;;4.65;;
25980;SDS011;13772;52.996;9.124;2023-05-07T21:48:37;5.95;;;4.75;;
25980;SDS011;13772;52.996;9.124;2023-05-07T21:51:03;5.20;;;4.07;;
25980;SDS011;13772;52.996;9.124;2023-05-07T21:53:29;6.55;;;4.07;;
25980;SDS011;13772;52.996;9.124;2023-05-07T21:55:54;7.68;;;4.75;;
